Commodore Clipper — C6QQ3 — position and weather

sailwx.info

Track history (hours):
 
Tides and Currents Weather Stations Pressure Air Temp Water Temp Dewpoint Dewpoint Depression Visibility Wind Speed Wind Dir Waves Ship Positions

Commodore Clipper

Operator: Condor Marine Services

Last reported at 2020-Apr-06 15:30 UTC. Time now 2020-Apr-06 17:54 UTC.
Position N 49°27' W 002°32'.

Length 130 m; draft 5.2 m.

Type: Ship (hazmat cat C). MMSI: 308094000.

Date/timePositionNaut miles runAvg speedWind from/ knotsBaromVisibWave heightAir tempDewpointWater temp
2020-Apr-06 15:30N 49°27' W 002°32'9 6.3
2020-Apr-06 14:01N 49°30' W 002°18'2814.2
2020-Apr-06 12:01N 49°54' W 001°54'4817.1
2020-Apr-06 09:11N 50°33' W 001°11'16 7.2
2020-Apr-06 07:00N 50°49' W 001°06'0 0.0
2020-Apr-06 06:00N 50°49' W 001°06'0 0.0
2020-Apr-06 05:00N 50°49' W 001°06'0 0.0
2020-Apr-06 04:30N 50°49' W 001°06'0 0.0
2020-Apr-06 03:30N 50°49' W 001°06'0 0.0
2020-Apr-06 03:00N 50°49' W 001°06'0 0.0
2020-Apr-06 02:30N 50°49' W 001°06'0 0.0
2020-Apr-06 01:00N 50°49' W 001°06'0 0.0
2020-Apr-05 20:00N 50°49' W 001°06'0 0.0
2020-Apr-05 18:30N 50°49' W 001°06'0 0.0
2020-Apr-05 16:00N 50°49' W 001°06'0 0.0
2020-Apr-05 15:00N 50°49' W 001°06'0 0.0
2020-Apr-05 14:30N 50°49' W 001°06'0 0.0
2020-Apr-05 14:00N 50°49' W 001°06'0 0.0
2020-Apr-05 13:30N 50°49' W 001°06'0 0.0
2020-Apr-05 13:00N 50°49' W 001°06'0 0.0
2020-Apr-05 11:00N 50°49' W 001°06'0 0.0
2020-Apr-05 07:57N 50°49' W 001°06'0 0.0
2020-Apr-05 07:30N 50°49' W 001°06'0 0.0
2020-Apr-05 07:00N 50°49' W 001°06'0 0.0
2020-Apr-05 06:30N 50°49' W 001°06'43 8.1
2020-Apr-05 01:06N 50°10' W 001°37'2314.6
2020-Apr-04 23:30N 49°51' W 001°57'2113.9
2020-Apr-04 22:01N 49°32' W 002°13'815.7
2020-Apr-04 21:30N 49°28' W 002°23'6 3.9
2020-Apr-04 20:01N 49°27' W 002°32'510.1
2020-Apr-04 19:30N 49°23' W 002°28'18 7.3
2020-Apr-04 17:00N 49°11' W 002°07'0 0.0
2020-Apr-04 16:00N 49°11' W 002°07'9 9.1
2020-Apr-04 15:00N 49°15' W 002°19'612.4
2020-Apr-04 14:30N 49°21' W 002°18'612.3
2020-Apr-04 14:00N 49°27' W 002°14'612.5
2020-Apr-04 13:30N 49°33' W 002°10'2713.7
2020-Apr-04 11:30N 49°57' W 001°50'714.1
2020-Apr-04 11:00N 50°02' W 001°44'918.6
2020-Apr-04 10:30N 50°10' W 001°36'1318.2
2020-Apr-04 09:48N 50°21' W 001°25'3013.3
2020-Apr-04 07:30N 50°49' W 001°06'10 2.8
2020-Apr-04 04:00N 50°39' W 001°05'4112.7
2020-Apr-04 00:46N 50°05' W 001°41'3515.7
2020-Apr-03 22:31N 49°35' W 002°09'815.7
2020-Apr-03 22:01N 49°30' W 002°19'815.2
2020-Apr-03 21:31N 49°25' W 002°28'3 3.1
2020-Apr-03 20:31N 49°27' W 002°32'5 4.6
2020-Apr-03 19:31N 49°23' W 002°28'19 6.2
2020-Apr-03 16:30N 49°11' W 002°07'0 0.0
2020-Apr-03 16:00N 49°11' W 002°07'5 9.1
2020-Apr-03 15:30N 49°10' W 002°14'3212.9
2020-Apr-03 13:00N 49°41' W 002°03'3115.2
2020-Apr-03 10:59N 50°07' W 001°38'2317.1
2020-Apr-03 09:40N 50°26' W 001°19'2414.2
2020-Apr-03 08:01N 50°49' W 001°07'1 1.1
2020-Apr-03 07:30N 50°49' W 001°06'0 0.0
2020-Apr-03 06:00N 50°49' W 001°06'0 0.0
2020-Apr-03 05:30N 50°49' W 001°06'1 1.0
2020-Apr-03 05:00N 50°49' W 001°06'1211.5
2020-Apr-03 04:00N 50°37' W 001°07'1112.7
2020-Apr-03 03:10N 50°28' W 001°16'7813.9
2020-Apr-02 21:31N 49°21' W 002°18'815.2
2020-Apr-02 21:01N 49°13' W 002°20'9 5.8
2020-Apr-02 19:30N 49°11' W 002°07'0 0.0
2020-Apr-02 19:00N 49°11' W 002°07'0 0.0
2020-Apr-02 18:30N 49°11' W 002°07'23 7.7
2020-Apr-02 15:31N 49°27' W 002°32'2010.0
2020-Apr-02 13:30N 49°39' W 002°06'2414.7
2020-Apr-02 11:52N 49°58' W 001°45'4117.0
2020-Apr-02 09:27N 50°33' W 001°11'1611.0
2020-Apr-02 08:00N 50°49' W 001°06'0 0.0
2020-Apr-02 07:30N 50°49' W 001°06'0 0.0
2020-Apr-02 05:30N 50°49' W 001°06'6910.6
2020-Apr-01 23:00N 49°48' W 001°58'714.2
2020-Apr-01 22:30N 49°42' W 002°04'1717.2
2020-Apr-01 21:30N 49°27' W 002°14'816.6
2020-Apr-01 21:00N 49°19' W 002°19'12 4.6
2020-Apr-01 18:30N 49°11' W 002°07'2 3.4
2020-Apr-01 18:01N 49°10' W 002°09'1010.5
2020-Apr-01 17:01N 49°16' W 002°22'713.0
2020-Apr-01 16:31N 49°22' W 002°26'10011.8
2020-Apr-01 08:00N 50°48' W 001°07'1 2.0
2020-Apr-01 07:30N 50°49' W 001°06'83 8.7
2020-Mar-31 22:00N 49°36' W 002°08'1716.9
2020-Mar-31 21:00N 49°21' W 002°18'815.7
2020-Mar-31 20:30N 49°13' W 002°20'9 3.6
2020-Mar-31 18:01N 49°10' W 002°07'1912.5
2020-Mar-31 16:31N 49°23' W 002°28'5 9.5
2020-Mar-31 16:00N 49°27' W 002°32'4910.8
2020-Mar-31 11:30N 50°04' W 001°42'816.0
2020-Mar-31 11:00N 50°11' W 001°35'2216.5
2020-Mar-31 09:40N 50°29' W 001°15'316.8
2020-Mar-31 09:29N 50°31' W 001°12'1414.2
2020-Mar-31 08:31N 50°44' W 001°04'5 5.0
2020-Mar-31 07:30N 50°49' W 001°06'0 0.0
2020-Mar-31 06:31N 50°49' W 001°06'1 0.9
2020-Mar-31 05:00N 50°48' W 001°07'5 9.7
2020-Mar-31 04:31N 50°43' W 001°03'4913.1
2020-Mar-31 00:45N 50°02' W 001°44'1411.2
2020-Mar-30 23:30N 49°51' W 001°57'2512.7
2020-Mar-30 21:30N 49°28' W 002°13'917.3
2020-Mar-30 21:00N 49°20' W 002°19'9 2.6
2020-Mar-30 17:31N 49°11' W 002°19'1313.3
2020-Mar-30 16:30N 49°23' W 002°27'3 1.4
2020-Mar-30 14:31N 49°25' W 002°28'713.7
2020-Mar-30 14:01N 49°29' W 002°20'2914.4
2020-Mar-30 12:00N 49°52' W 001°53'5515.7
2020-Mar-30 08:30N 50°37' W 001°03'713.6
2020-Mar-30 08:00N 50°44' W 001°04'5 2.4
2020-Mar-30 05:59N 50°49' W 001°06'0 0.0
2020-Mar-30 05:29N 50°49' W 001°06'0 0.0
2020-Mar-30 04:29N 50°49' W 001°06'0 0.0
2020-Mar-30 01:59N 50°49' W 001°06'0 0.0
2020-Mar-30 01:29N 50°49' W 001°06'0 0.0
2020-Mar-29 22:29N 50°49' W 001°06'0 0.0
2020-Mar-29 21:29N 50°49' W 001°06'0 0.0
2020-Mar-29 20:29N 50°49' W 001°06'0 0.0
2020-Mar-29 19:29N 50°49' W 001°06'0 0.0
2020-Mar-29 18:59N 50°49' W 001°06'0 0.0
2020-Mar-29 17:59N 50°49' W 001°06'0 0.0
2020-Mar-29 17:29N 50°49' W 001°06'0 0.0
2020-Mar-29 16:29N 50°49' W 001°06'0 0.0
2020-Mar-29 14:29N 50°49' W 001°06'0 0.0
2020-Mar-29 13:29N 50°49' W 001°06'0 0.0
2020-Mar-29 12:59N 50°49' W 001°06'0 0.0
2020-Mar-29 12:29N 50°49' W 001°06'0 0.0
2020-Mar-29 11:29N 50°49' W 001°06'0 0.0
2020-Mar-29 08:59N 50°49' W 001°06'67 7.4
2020-Mar-29 00:01N 49°50' W 001°55'713.5
2020-Mar-28 23:31N 49°45' W 002°01'3614.2
2020-Mar-28 21:00N 49°10' W 002°11'3 1.9
2020-Mar-28 19:30N 49°11' W 002°07'20 5.0
2020-Mar-28 15:31N 49°25' W 002°28'5217.5
2020-Mar-28 12:31N 50°07' W 001°38'2316.0
2020-Mar-28 11:06N 50°26' W 001°19'25 9.4
2020-Mar-28 08:30N 50°49' W 001°06'0 0.0
2020-Mar-28 06:31N 50°49' W 001°06'1 2.1
2020-Mar-28 06:00N 50°48' W 001°07'5711.3
2020-Mar-28 01:00N 49°59' W 001°50'4317.1
2020-Mar-27 22:30N 49°20' W 002°19'1211.7
2020-Mar-27 21:29N 49°11' W 002°07'23 5.2
2020-Mar-27 17:01N 49°27' W 002°32'0 0.0
2020-Mar-27 16:31N 49°27' W 002°32'0 0.0
2020-Mar-27 16:01N 49°27' W 002°32'  
Track history (hours):
 
Tides and Currents Weather Stations Pressure Air Temp Water Temp Dewpoint Dewpoint Depression Visibility Wind Speed Wind Dir Waves Ship Positions

Commodore Clipper

Operator: Condor Marine Services

Last reported at 2020-Apr-06 15:30 UTC. Time now 2020-Apr-06 17:54 UTC.
Position N 49°27' W 002°32'.

Length 130 m; draft 5.2 m.

Type: Ship (hazmat cat C). MMSI: 308094000.

Date/timePositionNaut miles runAvg speedWind from/ knotsBaromVisibWave heightAir tempDewpointWater temp
2020-Apr-06 15:30N 49°27' W 002°32'9 6.3
2020-Apr-06 14:01N 49°30' W 002°18'2814.2
2020-Apr-06 12:01N 49°54' W 001°54'4817.1
2020-Apr-06 09:11N 50°33' W 001°11'16 7.2
2020-Apr-06 07:00N 50°49' W 001°06'0 0.0
2020-Apr-06 06:00N 50°49' W 001°06'0 0.0
2020-Apr-06 05:00N 50°49' W 001°06'0 0.0
2020-Apr-06 04:30N 50°49' W 001°06'0 0.0
2020-Apr-06 03:30N 50°49' W 001°06'0 0.0
2020-Apr-06 03:00N 50°49' W 001°06'0 0.0
2020-Apr-06 02:30N 50°49' W 001°06'0 0.0
2020-Apr-06 01:00N 50°49' W 001°06'0 0.0
2020-Apr-05 20:00N 50°49' W 001°06'0 0.0
2020-Apr-05 18:30N 50°49' W 001°06'0 0.0
2020-Apr-05 16:00N 50°49' W 001°06'0 0.0
2020-Apr-05 15:00N 50°49' W 001°06'0 0.0
2020-Apr-05 14:30N 50°49' W 001°06'0 0.0
2020-Apr-05 14:00N 50°49' W 001°06'0 0.0
2020-Apr-05 13:30N 50°49' W 001°06'0 0.0
2020-Apr-05 13:00N 50°49' W 001°06'0 0.0
2020-Apr-05 11:00N 50°49' W 001°06'0 0.0
2020-Apr-05 07:57N 50°49' W 001°06'0 0.0
2020-Apr-05 07:30N 50°49' W 001°06'0 0.0
2020-Apr-05 07:00N 50°49' W 001°06'0 0.0
2020-Apr-05 06:30N 50°49' W 001°06'43 8.1
2020-Apr-05 01:06N 50°10' W 001°37'2314.6
2020-Apr-04 23:30N 49°51' W 001°57'2113.9
2020-Apr-04 22:01N 49°32' W 002°13'815.7
2020-Apr-04 21:30N 49°28' W 002°23'6 3.9
2020-Apr-04 20:01N 49°27' W 002°32'510.1
2020-Apr-04 19:30N 49°23' W 002°28'18 7.3
2020-Apr-04 17:00N 49°11' W 002°07'0 0.0
2020-Apr-04 16:00N 49°11' W 002°07'9 9.1
2020-Apr-04 15:00N 49°15' W 002°19'612.4
2020-Apr-04 14:30N 49°21' W 002°18'612.3
2020-Apr-04 14:00N 49°27' W 002°14'612.5
2020-Apr-04 13:30N 49°33' W 002°10'2713.7
2020-Apr-04 11:30N 49°57' W 001°50'714.1
2020-Apr-04 11:00N 50°02' W 001°44'918.6
2020-Apr-04 10:30N 50°10' W 001°36'1318.2
2020-Apr-04 09:48N 50°21' W 001°25'3013.3
2020-Apr-04 07:30N 50°49' W 001°06'10 2.8
2020-Apr-04 04:00N 50°39' W 001°05'4112.7
2020-Apr-04 00:46N 50°05' W 001°41'3515.7
2020-Apr-03 22:31N 49°35' W 002°09'815.7
2020-Apr-03 22:01N 49°30' W 002°19'815.2
2020-Apr-03 21:31N 49°25' W 002°28'3 3.1
2020-Apr-03 20:31N 49°27' W 002°32'5 4.6
2020-Apr-03 19:31N 49°23' W 002°28'19 6.2
2020-Apr-03 16:30N 49°11' W 002°07'0 0.0
2020-Apr-03 16:00N 49°11' W 002°07'5 9.1
2020-Apr-03 15:30N 49°10' W 002°14'3212.9
2020-Apr-03 13:00N 49°41' W 002°03'3115.2
2020-Apr-03 10:59N 50°07' W 001°38'2317.1
2020-Apr-03 09:40N 50°26' W 001°19'2414.2
2020-Apr-03 08:01N 50°49' W 001°07'1 1.1
2020-Apr-03 07:30N 50°49' W 001°06'0 0.0
2020-Apr-03 06:00N 50°49' W 001°06'0 0.0
2020-Apr-03 05:30N 50°49' W 001°06'1 1.0
2020-Apr-03 05:00N 50°49' W 001°06'1211.5
2020-Apr-03 04:00N 50°37' W 001°07'1112.7
2020-Apr-03 03:10N 50°28' W 001°16'7813.9
2020-Apr-02 21:31N 49°21' W 002°18'815.2
2020-Apr-02 21:01N 49°13' W 002°20'9 5.8
2020-Apr-02 19:30N 49°11' W 002°07'0 0.0
2020-Apr-02 19:00N 49°11' W 002°07'0 0.0
2020-Apr-02 18:30N 49°11' W 002°07'23 7.7
2020-Apr-02 15:31N 49°27' W 002°32'2010.0
2020-Apr-02 13:30N 49°39' W 002°06'2414.7
2020-Apr-02 11:52N 49°58' W 001°45'4117.0
2020-Apr-02 09:27N 50°33' W 001°11'1611.0
2020-Apr-02 08:00N 50°49' W 001°06'0 0.0
2020-Apr-02 07:30N 50°49' W 001°06'0 0.0
2020-Apr-02 05:30N 50°49' W 001°06'6910.6
2020-Apr-01 23:00N 49°48' W 001°58'714.2
2020-Apr-01 22:30N 49°42' W 002°04'1717.2
2020-Apr-01 21:30N 49°27' W 002°14'816.6
2020-Apr-01 21:00N 49°19' W 002°19'12 4.6
2020-Apr-01 18:30N 49°11' W 002°07'2 3.4
2020-Apr-01 18:01N 49°10' W 002°09'1010.5
2020-Apr-01 17:01N 49°16' W 002°22'713.0
2020-Apr-01 16:31N 49°22' W 002°26'10011.8
2020-Apr-01 08:00N 50°48' W 001°07'1 2.0
2020-Apr-01 07:30N 50°49' W 001°06'83 8.7
2020-Mar-31 22:00N 49°36' W 002°08'1716.9
2020-Mar-31 21:00N 49°21' W 002°18'815.7
2020-Mar-31 20:30N 49°13' W 002°20'9 3.6
2020-Mar-31 18:01N 49°10' W 002°07'1912.5
2020-Mar-31 16:31N 49°23' W 002°28'5 9.5
2020-Mar-31 16:00N 49°27' W 002°32'4910.8
2020-Mar-31 11:30N 50°04' W 001°42'816.0
2020-Mar-31 11:00N 50°11' W 001°35'2216.5
2020-Mar-31 09:40N 50°29' W 001°15'316.8
2020-Mar-31 09:29N 50°31' W 001°12'1414.2
2020-Mar-31 08:31N 50°44' W 001°04'5 5.0
2020-Mar-31 07:30N 50°49' W 001°06'0 0.0
2020-Mar-31 06:31N 50°49' W 001°06'1 0.9
2020-Mar-31 05:00N 50°48' W 001°07'5 9.7
2020-Mar-31 04:31N 50°43' W 001°03'4913.1
2020-Mar-31 00:45N 50°02' W 001°44'1411.2
2020-Mar-30 23:30N 49°51' W 001°57'2512.7
2020-Mar-30 21:30N 49°28' W 002°13'917.3
2020-Mar-30 21:00N 49°20' W 002°19'9 2.6
2020-Mar-30 17:31N 49°11' W 002°19'1313.3
2020-Mar-30 16:30N 49°23' W 002°27'3 1.4
2020-Mar-30 14:31N 49°25' W 002°28'713.7
2020-Mar-30 14:01N 49°29' W 002°20'2914.4
2020-Mar-30 12:00N 49°52' W 001°53'5515.7
2020-Mar-30 08:30N 50°37' W 001°03'713.6
2020-Mar-30 08:00N 50°44' W 001°04'5 2.4
2020-Mar-30 05:59N 50°49' W 001°06'0 0.0
2020-Mar-30 05:29N 50°49' W 001°06'0 0.0
2020-Mar-30 04:29N 50°49' W 001°06'0 0.0
2020-Mar-30 01:59N 50°49' W 001°06'0 0.0
2020-Mar-30 01:29N 50°49' W 001°06'0 0.0
2020-Mar-29 22:29N 50°49' W 001°06'0 0.0
2020-Mar-29 21:29N 50°49' W 001°06'0 0.0
2020-Mar-29 20:29N 50°49' W 001°06'0 0.0
2020-Mar-29 19:29N 50°49' W 001°06'0 0.0
2020-Mar-29 18:59N 50°49' W 001°06'0 0.0
2020-Mar-29 17:59N 50°49' W 001°06'0 0.0
2020-Mar-29 17:29N 50°49' W 001°06'0 0.0
2020-Mar-29 16:29N 50°49' W 001°06'0 0.0
2020-Mar-29 14:29N 50°49' W 001°06'0 0.0
2020-Mar-29 13:29N 50°49' W 001°06'0 0.0
2020-Mar-29 12:59N 50°49' W 001°06'0 0.0
2020-Mar-29 12:29N 50°49' W 001°06'0 0.0
2020-Mar-29 11:29N 50°49' W 001°06'0 0.0
2020-Mar-29 08:59N 50°49' W 001°06'67 7.4
2020-Mar-29 00:01N 49°50' W 001°55'713.5
2020-Mar-28 23:31N 49°45' W 002°01'3614.2
2020-Mar-28 21:00N 49°10' W 002°11'3 1.9
2020-Mar-28 19:30N 49°11' W 002°07'20 5.0
2020-Mar-28 15:31N 49°25' W 002°28'5217.5
2020-Mar-28 12:31N 50°07' W 001°38'2316.0
2020-Mar-28 11:06N 50°26' W 001°19'25 9.4
2020-Mar-28 08:30N 50°49' W 001°06'0 0.0
2020-Mar-28 06:31N 50°49' W 001°06'1 2.1
2020-Mar-28 06:00N 50°48' W 001°07'5711.3
2020-Mar-28 01:00N 49°59' W 001°50'4317.1
2020-Mar-27 22:30N 49°20' W 002°19'1211.7
2020-Mar-27 21:29N 49°11' W 002°07'23 5.2
2020-Mar-27 17:01N 49°27' W 002°32'0 0.0
2020-Mar-27 16:31N 49°27' W 002°32'0 0.0
2020-Mar-27 16:01N 49°27' W 002°32'  

Dump ship's entire track history